Time;durP1;ratioP1;P1;durP2;ratioP2;P2;SDS_P1;SDS_P2;PMS_P1;PMS_P2;Temp;Humidity;BMP_temperature;BMP_pressure;BME280_temperature;BME280_humidity;BME280_pressure;Samples;Min_cycle;Max_cycle;Signal;HPM_P1;HPM_P2
2021/10/07 00:02:17;;;;;;;2.00;1.77;;;10.30;99.90;;;;;;4987161;28;20715;-65
2021/10/07 00:04:45;;;;;;;2.40;2.10;;;10.30;99.90;;;;;;4989967;28;20277;-63
2021/10/07 00:07:14;;;;;;;2.20;2.00;;;10.30;99.90;;;;;;4996692;28;20327;-64
2021/10/07 00:09:42;;;;;;;3.73;1.90;;;10.20;99.90;;;;;;4994050;28;20232;-65
2021/10/07 00:12:10;;;;;;;2.47;1.87;;;10.20;99.90;;;;;;4984869;28;20660;-64
2021/10/07 00:14:39;;;;;;;2.07;1.90;;;10.20;99.90;;;;;;4994361;28;20228;-65
2021/10/07 00:17:08;;;;;;;2.73;2.10;;;10.20;99.90;;;;;;4996995;28;20263;-64
2021/10/07 00:19:36;;;;;;;2.17;1.90;;;10.10;99.90;;;;;;4992079;28;20227;-64
2021/10/07 00:22:05;;;;;;;3.73;2.40;;;10.10;99.90;;;;;;4991195;28;20240;-63
2021/10/07 00:24:33;;;;;;;2.60;2.07;;;10.10;99.90;;;;;;4994175;28;20246;-63
2021/10/07 00:27:01;;;;;;;4.83;1.90;;;10.10;99.90;;;;;;4995840;28;20285;-64
2021/10/07 00:29:39;;;;;;;2.10;1.97;;;10.10;99.90;;;;;;4992109;28;20263;-64
2021/10/07 00:32:12;;;;;;;2.03;1.90;;;10.00;99.90;;;;;;4996441;28;20257;-64
2021/10/07 00:35:04;;;;;;;2.30;2.10;;;10.00;99.90;;;;;;4998897;28;20704;-64
2021/10/07 00:40:18;;;;;;;3.03;2.00;;;10.00;99.90;;;;;;4990642;28;20251;-64
2021/10/07 00:42:46;;;;;;;3.07;2.00;;;10.00;99.90;;;;;;4992791;28;20270;-64
2021/10/07 00:45:16;;;;;;;2.53;1.80;;;10.00;99.90;;;;;;4990968;28;20588;-64
2021/10/07 00:47:45;;;;;;;3.27;2.10;;;10.00;99.90;;;;;;4997213;28;20250;-63
2021/10/07 00:50:14;;;;;;;2.10;1.90;;;10.00;99.90;;;;;;4992890;28;20250;-64
2021/10/07 00:52:42;;;;;;;3.43;2.20;;;9.90;99.90;;;;;;4990552;28;20290;-64
2021/10/07 00:55:11;;;;;;;2.53;2.07;;;9.90;99.90;;;;;;4995230;28;20241;-64
2021/10/07 00:57:40;;;;;;;2.63;1.87;;;9.90;99.90;;;;;;4985172;28;20260;-64
2021/10/07 01:00:10;;;;;;;2.43;2.10;;;9.90;99.90;;;;;;4987600;28;20242;-64
2021/10/07 01:02:38;;;;;;;2.23;2.00;;;9.90;99.90;;;;;;4995401;28;20246;-64
2021/10/07 01:05:09;;;;;;;3.87;2.30;;;9.90;99.90;;;;;;4993070;28;20690;-63
2021/10/07 01:07:37;;;;;;;2.33;2.10;;;9.80;99.90;;;;;;4990758;28;20263;-64
2021/10/07 01:10:06;;;;;;;2.17;1.97;;;9.80;99.90;;;;;;4997784;28;20504;-64
2021/10/07 01:12:34;;;;;;;3.30;1.90;;;9.80;99.90;;;;;;4987948;28;20277;-64
2021/10/07 01:15:02;;;;;;;2.30;2.03;;;9.80;99.90;;;;;;4995943;28;20242;-64
2021/10/07 01:17:33;;;;;;;2.57;2.03;;;9.80;99.90;;;;;;4994956;28;20239;-63
2021/10/07 01:20:06;;;;;;;2.50;2.03;;;9.80;99.90;;;;;;4995568;28;20242;-64
2021/10/07 01:22:34;;;;;;;2.80;2.53;;;9.80;99.90;;;;;;4996846;28;20361;-65
2021/10/07 01:25:03;;;;;;;2.53;2.20;;;9.80;99.90;;;;;;4999240;28;20233;-64
2021/10/07 01:27:32;;;;;;;3.13;2.20;;;9.80;99.90;;;;;;4999191;28;20259;-63
2021/10/07 01:30:02;;;;;;;2.20;2.00;;;9.70;99.90;;;;;;4993506;28;20327;-63
2021/10/07 01:32:34;;;;;;;3.53;2.13;;;9.70;99.90;;;;;;4991909;28;20682;-64
2021/10/07 01:35:04;;;;;;;2.30;2.10;;;9.70;99.90;;;;;;4997001;28;20249;-64
2021/10/07 01:37:32;;;;;;;2.30;2.10;;;9.70;99.90;;;;;;4989094;28;20246;-64
2021/10/07 01:40:00;;;;;;;2.60;2.00;;;9.70;99.90;;;;;;4996438;28;20235;-64
2021/10/07 01:42:29;;;;;;;2.47;2.20;;;9.70;99.90;;;;;;4985452;28;20722;-64
2021/10/07 01:44:57;;;;;;;2.70;2.20;;;9.70;99.90;;;;;;4992625;28;20238;-64
2021/10/07 01:47:27;;;;;;;2.77;2.00;;;9.70;99.90;;;;;;4994401;28;20286;-64
2021/10/07 01:49:55;;;;;;;2.23;1.83;;;9.70;99.90;;;;;;4994246;28;20238;-64
2021/10/07 01:52:25;;;;;;;3.10;2.20;;;9.60;99.90;;;;;;4989427;28;20294;-64
2021/10/07 01:54:53;;;;;;;2.80;1.70;;;9.60;99.90;;;;;;4994033;28;20239;-64
2021/10/07 01:57:21;;;;;;;2.10;1.70;;;9.60;99.90;;;;;;4992286;28;20320;-64
2021/10/07 01:59:49;;;;;;;1.70;1.60;;;9.60;99.90;;;;;;4989213;28;20318;-65
2021/10/07 02:02:18;;;;;;;2.10;1.30;;;9.50;99.90;;;;;;4989450;28;20344;-65
2021/10/07 02:04:46;;;;;;;1.53;1.10;;;9.50;99.90;;;;;;4994908;28;20254;-64
2021/10/07 02:07:14;;;;;;;1.10;1.00;;;9.50;99.90;;;;;;4990621;28;20612;-63
2021/10/07 02:09:43;;;;;;;1.57;1.13;;;9.40;99.90;;;;;;4992697;28;20953;-64
2021/10/07 02:12:12;;;;;;;1.20;1.10;;;9.40;99.90;;;;;;4994248;28;20265;-65
2021/10/07 02:14:40;;;;;;;1.90;1.30;;;9.40;99.90;;;;;;4985708;28;20230;-64
2021/10/07 02:17:08;;;;;;;2.30;1.40;;;9.40;99.90;;;;;;4998027;28;20237;-64
2021/10/07 02:19:36;;;;;;;1.87;1.40;;;9.40;99.90;;;;;;4990881;28;20235;-64
2021/10/07 02:22:05;;;;;;;2.73;1.60;;;9.30;99.90;;;;;;4990787;28;20326;-64
2021/10/07 02:24:34;;;;;;;2.00;1.80;;;9.30;99.90;;;;;;4993773;28;20238;-64
2021/10/07 02:27:04;;;;;;;2.03;1.60;;;9.30;99.90;;;;;;4992226;28;20234;-64
2021/10/07 02:29:33;;;;;;;2.10;1.70;;;9.30;99.90;;;;;;4984206;28;20736;-64
2021/10/07 02:32:01;;;;;;;1.70;1.33;;;9.30;99.90;;;;;;4988244;28;20246;-64
2021/10/07 02:34:29;;;;;;;1.57;1.47;;;9.20;99.90;;;;;;4982747;28;20238;-65
2021/10/07 02:36:57;;;;;;;1.60;1.50;;;9.20;99.90;;;;;;4995153;28;20229;-64
2021/10/07 02:39:26;;;;;;;1.80;1.30;;;9.20;99.90;;;;;;4995274;28;20242;-64
2021/10/07 02:41:54;;;;;;;1.83;1.50;;;9.20;99.90;;;;;;4991909;28;20720;-64
2021/10/07 02:44:24;;;;;;;1.67;1.57;;;9.20;99.90;;;;;;4990532;28;20320;-64
2021/10/07 02:46:52;;;;;;;1.37;1.27;;;9.20;99.90;;;;;;4989610;28;20707;-65
2021/10/07 02:49:20;;;;;;;1.50;1.40;;;9.20;99.90;;;;;;5000389;28;20242;-64
2021/10/07 02:51:48;;;;;;;3.40;1.70;;;9.20;99.90;;;;;;4993559;28;20265;-64
2021/10/07 02:54:16;;;;;;;4.03;1.87;;;9.10;99.90;;;;;;4992311;28;20242;-64
2021/10/07 02:56:45;;;;;;;2.03;1.60;;;9.10;99.90;;;;;;4980101;28;20900;-65
2021/10/07 02:59:13;;;;;;;1.60;1.50;;;9.00;99.90;;;;;;4990256;28;20274;-64
2021/10/07 03:01:43;;;;;;;2.50;1.70;;;9.00;99.90;;;;;;4991538;28;20360;-64
2021/10/07 03:04:11;;;;;;;2.67;2.10;;;9.00;99.90;;;;;;4991628;28;20246;-64
2021/10/07 03:06:39;;;;;;;1.90;1.80;;;9.00;99.90;;;;;;4980764;28;20288;-64
2021/10/07 03:09:08;;;;;;;1.90;1.70;;;9.00;99.90;;;;;;4989628;28;20246;-64
2021/10/07 03:11:36;;;;;;;3.33;1.90;;;9.00;99.90;;;;;;4990027;28;20230;-64
2021/10/07 03:14:04;;;;;;;2.50;1.70;;;9.00;99.90;;;;;;4990962;28;20361;-64
2021/10/07 03:16:33;;;;;;;2.17;1.50;;;8.90;99.90;;;;;;4993047;28;20242;-64
2021/10/07 03:19:03;;;;;;;1.80;1.70;;;8.90;99.90;;;;;;4992757;28;20274;-64
2021/10/07 03:21:31;;;;;;;2.67;1.90;;;8.90;99.90;;;;;;4999627;28;20644;-64
2021/10/07 03:23:59;;;;;;;2.37;1.80;;;8.90;99.90;;;;;;4993431;28;20229;-65
2021/10/07 03:26:27;;;;;;;1.70;1.60;;;8.90;99.90;;;;;;4991653;28;20707;-63
2021/10/07 03:28:55;;;;;;;2.50;2.00;;;8.90;99.90;;;;;;4989638;28;20321;-65
2021/10/07 03:31:24;;;;;;;2.30;2.10;;;8.90;99.90;;;;;;4999618;28;20234;-65
2021/10/07 03:33:52;;;;;;;1.90;1.80;;;8.90;99.90;;;;;;4997040;28;20241;-64
2021/10/07 03:36:21;;;;;;;2.30;2.07;;;8.80;99.90;;;;;;4992243;28;20250;-65
2021/10/07 03:38:49;;;;;;;3.07;2.13;;;8.80;99.90;;;;;;4991421;28;20238;-64
2021/10/07 03:41:18;;;;;;;2.23;2.03;;;8.80;99.90;;;;;;4991856;28;20284;-64
2021/10/07 03:43:46;;;;;;;2.00;1.90;;;8.80;99.90;;;;;;4993404;28;20321;-64
2021/10/07 03:46:16;;;;;;;2.67;2.20;;;8.80;99.90;;;;;;4993578;28;20237;-64
2021/10/07 03:48:45;;;;;;;2.40;2.13;;;8.80;99.90;;;;;;4993746;28;20800;-64
2021/10/07 03:51:13;;;;;;;5.40;2.20;;;8.70;99.90;;;;;;4987897;28;20253;-64
2021/10/07 03:53:42;;;;;;;3.90;2.03;;;8.70;99.90;;;;;;4989995;28;20746;-64
2021/10/07 03:56:11;;;;;;;2.30;2.10;;;8.70;99.90;;;;;;4988182;28;20235;-64
2021/10/07 03:58:39;;;;;;;1.87;1.73;;;8.60;99.90;;;;;;4991400;28;20710;-64
2021/10/07 04:01:07;;;;;;;2.70;1.80;;;8.60;99.90;;;;;;4994053;28;20238;-63
2021/10/07 04:03:35;;;;;;;2.87;1.70;;;8.60;99.90;;;;;;4997652;28;20243;-63
2021/10/07 04:06:04;;;;;;;1.70;1.60;;;8.60;99.90;;;;;;4991067;28;20239;-63
2021/10/07 04:08:35;;;;;;;2.07;1.87;;;8.60;99.90;;;;;;4993423;28;20234;-63
2021/10/07 04:11:05;;;;;;;2.97;1.87;;;8.60;99.90;;;;;;4994161;28;20235;-65
2021/10/07 04:13:33;;;;;;;2.00;1.80;;;8.60;99.90;;;;;;4992629;28;20245;-64
2021/10/07 04:16:01;;;;;;;2.90;2.10;;;8.60;99.90;;;;;;4994770;28;20248;-63
2021/10/07 04:18:31;;;;;;;2.43;2.00;;;8.50;99.90;;;;;;4983816;28;20231;-63
2021/10/07 04:21:00;;;;;;;2.60;2.33;;;8.50;99.90;;;;;;4991644;28;20354;-64
2021/10/07 04:23:28;;;;;;;2.87;2.10;;;8.50;99.90;;;;;;4988237;28;20281;-63
2021/10/07 04:25:56;;;;;;;2.47;2.27;;;8.50;99.90;;;;;;4987021;28;20250;-63
2021/10/07 04:28:26;;;;;;;3.27;2.30;;;8.50;99.90;;;;;;4991817;28;20230;-63
2021/10/07 04:30:54;;;;;;;3.27;2.33;;;8.50;99.90;;;;;;4991754;28;20257;-64
2021/10/07 04:33:22;;;;;;;2.20;2.00;;;8.40;99.90;;;;;;4988050;28;20239;-64
2021/10/07 04:35:50;;;;;;;2.07;1.83;;;8.40;99.90;;;;;;4994238;28;20243;-64
2021/10/07 04:38:18;;;;;;;1.57;1.47;;;8.40;99.90;;;;;;4989736;28;20517;-64
2021/10/07 04:40:46;;;;;;;1.77;1.50;;;8.40;99.90;;;;;;4982438;28;20242;-64
2021/10/07 04:43:19;;;;;;;2.63;1.77;;;8.40;99.90;;;;;;4980747;28;20607;-64
2021/10/07 04:45:48;;;;;;;2.23;2.03;;;8.30;99.90;;;;;;4992437;28;20234;-63
2021/10/07 04:48:16;;;;;;;3.37;2.67;;;8.30;99.90;;;;;;4996710;28;20272;-64
2021/10/07 04:50:45;;;;;;;4.03;2.60;;;8.30;99.90;;;;;;4998434;28;20246;-64
2021/10/07 04:53:13;;;;;;;3.67;3.13;;;8.30;99.90;;;;;;4998108;28;20239;-65
2021/10/07 04:55:41;;;;;;;3.47;3.10;;;8.30;99.90;;;;;;4989054;28;20262;-63
2021/10/07 04:58:09;;;;;;;6.40;4.47;;;8.30;99.90;;;;;;4986667;28;20237;-63
2021/10/07 05:00:37;;;;;;;4.40;4.00;;;8.30;99.90;;;;;;4984053;28;20245;-64
2021/10/07 05:03:07;;;;;;;7.37;4.40;;;8.30;99.90;;;;;;4981827;28;20519;-64
2021/10/07 05:05:36;;;;;;;5.03;4.00;;;8.20;99.90;;;;;;4973122;28;20246;-64
2021/10/07 05:08:05;;;;;;;6.37;4.43;;;8.20;99.90;;;;;;4991622;28;20316;-65
2021/10/07 05:10:33;;;;;;;5.90;4.10;;;8.20;99.90;;;;;;4983186;28;20242;-65
2021/10/07 05:13:02;;;;;;;4.40;4.00;;;8.20;99.90;;;;;;4986209;28;20232;-64
2021/10/07 05:15:30;;;;;;;4.17;3.77;;;8.20;99.90;;;;;;4987822;28;20345;-63
2021/10/07 05:17:58;;;;;;;3.80;3.50;;;8.10;99.90;;;;;;4989550;28;20258;-64
2021/10/07 05:20:29;;;;;;;4.27;3.87;;;8.10;99.90;;;;;;4990942;28;20325;-64
2021/10/07 05:22:57;;;;;;;4.03;3.20;;;8.10;99.90;;;;;;4990353;28;20658;-64
2021/10/07 05:25:25;;;;;;;3.87;3.27;;;8.10;99.90;;;;;;4990291;28;20293;-64
2021/10/07 05:27:54;;;;;;;3.20;2.90;;;8.10;99.90;;;;;;4993318;28;20233;-63
2021/10/07 05:30:22;;;;;;;3.03;2.73;;;8.10;99.90;;;;;;4988176;28;20241;-64
2021/10/07 05:32:51;;;;;;;5.07;2.67;;;8.10;99.90;;;;;;4991308;28;20239;-65
2021/10/07 05:35:19;;;;;;;4.17;2.73;;;8.00;99.90;;;;;;4990806;28;20532;-65
2021/10/07 05:37:48;;;;;;;3.13;2.40;;;8.00;99.90;;;;;;4994156;28;20292;-64
2021/10/07 05:40:17;;;;;;;2.73;2.43;;;8.00;99.90;;;;;;4992321;28;20230;-65
2021/10/07 05:42:45;;;;;;;2.70;2.07;;;8.00;99.90;;;;;;4976230;28;20699;-64
2021/10/07 05:45:13;;;;;;;2.70;2.03;;;8.00;99.90;;;;;;4978751;28;20267;-64
2021/10/07 05:47:42;;;;;;;2.17;1.80;;;7.90;99.90;;;;;;4980703;28;20236;-63
2021/10/07 05:50:12;;;;;;;2.27;1.50;;;7.90;99.90;;;;;;4987883;28;20242;-64
2021/10/07 05:52:40;;;;;;;1.27;1.17;;;7.90;99.90;;;;;;4979919;28;20330;-64
2021/10/07 05:55:10;;;;;;;1.97;1.30;;;7.90;99.90;;;;;;4985561;28;20238;-64
2021/10/07 05:57:39;;;;;;;1.40;1.30;;;7.90;99.90;;;;;;4982588;28;20562;-64
2021/10/07 06:00:09;;;;;;;2.67;1.43;;;7.80;99.90;;;;;;4986407;28;20264;-64
2021/10/07 06:02:39;;;;;;;1.37;1.27;;;7.80;99.90;;;;;;4987104;28;20407;-64
2021/10/07 06:05:10;;;;;;;2.90;1.70;;;7.90;99.90;;;;;;4987897;28;20249;-64
2021/10/07 06:07:38;;;;;;;1.80;1.70;;;7.90;99.90;;;;;;4982587;28;20245;-64
2021/10/07 06:10:08;;;;;;;2.00;1.57;;;7.90;99.90;;;;;;4984927;28;20269;-64
2021/10/07 06:12:38;;;;;;;2.50;2.30;;;8.00;99.90;;;;;;4990823;28;20241;-64
2021/10/07 06:15:07;;;;;;;3.27;2.50;;;8.00;99.90;;;;;;4986457;28;20328;-64
2021/10/07 06:17:35;;;;;;;3.37;2.53;;;8.00;99.90;;;;;;4988513;28;20514;-64
2021/10/07 06:20:06;;;;;;;3.33;3.03;;;8.10;99.90;;;;;;4992207;28;20245;-64
2021/10/07 06:22:34;;;;;;;2.93;2.73;;;8.10;99.90;;;;;;4986596;28;20340;-64
2021/10/07 06:25:02;;;;;;;3.83;3.00;;;8.10;99.90;;;;;;4995197;28;20810;-64
2021/10/07 06:27:31;;;;;;;4.03;3.40;;;8.20;99.90;;;;;;4986972;28;20238;-64
2021/10/07 06:30:00;;;;;;;3.70;3.40;;;8.20;99.90;;;;;;4985022;28;20226;-64
2021/10/07 06:32:28;;;;;;;4.13;3.70;;;8.30;99.90;;;;;;4990049;28;20240;-65
2021/10/07 06:34:57;;;;;;;3.97;3.33;;;8.40;99.90;;;;;;4995410;28;20229;-65
2021/10/07 06:37:25;;;;;;;4.23;3.57;;;8.40;99.90;;;;;;4991800;28;20238;-64
2021/10/07 06:39:56;;;;;;;4.37;3.93;;;8.50;99.90;;;;;;4991472;28;20299;-65
2021/10/07 06:42:24;;;;;;;4.70;4.20;;;8.60;99.90;;;;;;4985794;28;20268;-65
2021/10/07 06:44:52;;;;;;;4.40;3.90;;;8.70;99.90;;;;;;4985432;28;20663;-65
2021/10/07 06:47:22;;;;;;;5.20;4.17;;;8.80;99.90;;;;;;4989194;28;20645;-64
2021/10/07 06:49:50;;;;;;;4.23;3.83;;;8.90;99.90;;;;;;4983025;28;20248;-64
2021/10/07 06:52:18;;;;;;;3.67;3.37;;;9.00;99.90;;;;;;4990506;28;20805;-65
2021/10/07 06:54:46;;;;;;;4.70;3.67;;;9.20;99.90;;;;;;4995492;28;20323;-65
2021/10/07 06:57:15;;;;;;;3.43;3.10;;;9.30;99.90;;;;;;4996112;28;20328;-65
2021/10/07 06:59:43;;;;;;;3.80;3.30;;;9.40;99.90;;;;;;4992452;28;20240;-65
2021/10/07 07:02:13;;;;;;;4.43;3.10;;;9.60;99.90;;;;;;4990121;28;20320;-65
2021/10/07 07:04:43;;;;;;;6.17;3.00;;;9.80;99.90;;;;;;4985931;28;20316;-65
2021/10/07 07:07:11;;;;;;;3.10;2.77;;;10.00;99.90;;;;;;4992025;28;20260;-65
2021/10/07 07:09:39;;;;;;;4.00;2.70;;;10.20;99.90;;;;;;4987574;28;20236;-65
2021/10/07 07:12:22;;;;;;;3.70;2.73;;;10.30;99.90;;;;;;4985515;28;20243;-65
2021/10/07 07:14:50;;;;;;;4.33;2.70;;;10.50;99.90;;;;;;4983145;28;20329;-65
2021/10/07 07:17:18;;;;;;;3.33;2.67;;;10.70;99.90;;;;;;4984593;28;20255;-65
2021/10/07 07:19:48;;;;;;;3.90;3.13;;;10.90;99.90;;;;;;4981457;28;20241;-64
2021/10/07 07:22:16;;;;;;;3.93;3.07;;;11.20;99.90;;;;;;4975415;28;20245;-66
2021/10/07 07:24:44;;;;;;;4.20;3.50;;;11.40;99.90;;;;;;4979095;28;20257;-66
2021/10/07 07:27:14;;;;;;;4.43;3.60;;;11.60;99.90;;;;;;4986405;28;20234;-65
2021/10/07 07:29:42;;;;;;;5.27;3.57;;;11.80;99.90;;;;;;4981747;28;20254;-65
2021/10/07 07:32:11;;;;;;;4.03;3.57;;;12.00;99.90;;;;;;4981378;28;20714;-66
2021/10/07 07:34:39;;;;;;;6.63;3.27;;;12.20;99.90;;;;;;4981995;28;20717;-65
2021/10/07 07:37:09;;;;;;;5.93;3.10;;;12.40;99.90;;;;;;4981898;28;20234;-65
2021/10/07 07:39:37;;;;;;;3.60;3.30;;;12.60;99.90;;;;;;4980272;28;20248;-66
2021/10/07 07:42:08;;;;;;;5.63;2.97;;;12.80;99.90;;;;;;4982617;28;20720;-65
2021/10/07 07:44:36;;;;;;;4.93;3.57;;;12.90;99.90;;;;;;4984467;28;20800;-65
2021/10/07 07:47:04;;;;;;;4.00;3.20;;;13.00;99.90;;;;;;4981496;28;20608;-66
2021/10/07 07:49:32;;;;;;;4.53;3.33;;;13.20;99.90;;;;;;4977275;28;20727;-66
2021/10/07 07:52:01;;;;;;;4.17;3.00;;;13.20;99.90;;;;;;4978403;28;20237;-66
2021/10/07 07:54:30;;;;;;;5.00;3.13;;;13.30;99.90;;;;;;4980233;28;20231;-65
2021/10/07 07:56:58;;;;;;;4.00;2.97;;;13.50;99.90;;;;;;4985821;28;20321;-66
2021/10/07 07:59:26;;;;;;;3.73;3.10;;;13.60;99.90;;;;;;4986035;28;20284;-65
2021/10/07 08:01:55;;;;;;;5.10;3.20;;;13.80;99.90;;;;;;4989349;28;20251;-66
2021/10/07 08:04:23;;;;;;;4.70;3.03;;;14.00;99.90;;;;;;4989571;28;20248;-65
2021/10/07 08:06:52;;;;;;;3.33;2.80;;;14.10;99.90;;;;;;4983550;28;20268;-65
2021/10/07 08:09:20;;;;;;;3.73;2.93;;;14.20;99.90;;;;;;4987997;28;20244;-65
2021/10/07 08:11:49;;;;;;;3.20;2.60;;;14.50;99.90;;;;;;4994191;28;20248;-65
2021/10/07 08:14:17;;;;;;;4.13;2.83;;;14.70;99.90;;;;;;4984378;28;20334;-66
2021/10/07 08:16:46;;;;;;;3.43;2.83;;;14.80;99.90;;;;;;4988155;28;20586;-66
2021/10/07 08:19:14;;;;;;;5.90;3.10;;;14.90;99.90;;;;;;4989996;28;20284;-66
2021/10/07 08:21:42;;;;;;;4.80;2.57;;;15.00;99.90;;;;;;4982472;28;20252;-65
2021/10/07 08:24:12;;;;;;;5.60;3.00;;;15.20;99.90;;;;;;4981692;28;20233;-65
2021/10/07 08:26:40;;;;;;;3.80;2.97;;;15.10;99.90;;;;;;4981663;28;20323;-65
2021/10/07 08:29:10;;;;;;;3.37;2.90;;;15.40;99.90;;;;;;4983088;28;20252;-66
2021/10/07 08:31:41;;;;;;;4.67;3.27;;;15.60;99.90;;;;;;4980129;28;20291;-66
2021/10/07 08:34:09;;;;;;;3.90;2.90;;;15.70;99.90;;;;;;4978749;28;20664;-66
2021/10/07 08:36:42;;;;;;;5.00;3.10;;;16.00;99.90;;;;;;4984470;28;20257;-66
2021/10/07 08:39:10;;;;;;;4.23;2.90;;;16.10;99.90;;;;;;4981341;28;20250;-66
2021/10/07 08:41:45;;;;;;;3.10;2.63;;;16.30;99.90;;;;;;4980444;28;20709;-66
2021/10/07 08:44:16;;;;;;;4.63;2.97;;;16.40;99.90;;;;;;4983912;28;20245;-66
2021/10/07 08:46:46;;;;;;;4.20;2.77;;;16.50;99.90;;;;;;4989045;28;20783;-66
2021/10/07 08:49:20;;;;;;;3.70;2.90;;;16.60;99.90;;;;;;4985865;28;20268;-66
2021/10/07 08:51:49;;;;;;;4.80;2.70;;;16.80;99.90;;;;;;4975097;28;20814;-65
2021/10/07 08:54:18;;;;;;;7.50;2.73;;;17.10;99.90;;;;;;4994095;28;20328;-66
2021/10/07 08:56:46;;;;;;;3.60;2.30;;;17.30;99.90;;;;;;4986968;28;20642;-65
2021/10/07 08:59:19;;;;;;;3.13;2.20;;;17.50;99.90;;;;;;4989545;28;20269;-65
2021/10/07 09:01:50;;;;;;;3.87;2.60;;;17.40;99.90;;;;;;4990843;28;20241;-65
2021/10/07 09:04:20;;;;;;;3.10;2.60;;;17.60;99.90;;;;;;4993647;28;20332;-65
2021/10/07 09:06:50;;;;;;;3.33;2.43;;;17.50;99.90;;;;;;4990866;28;20642;-66
2021/10/07 09:09:24;;;;;;;2.80;2.60;;;17.70;99.90;;;;;;4986066;28;20324;-65
2021/10/07 09:11:54;;;;;;;3.37;2.50;;;17.80;99.90;;;;;;4991773;28;20527;-65
2021/10/07 09:14:27;;;;;;;4.07;2.77;;;18.00;99.90;;;;;;4988255;28;20918;-65
2021/10/07 09:16:56;;;;;;;2.90;2.43;;;18.10;99.90;;;;;;4988065;28;20297;-66
2021/10/07 09:19:26;;;;;;;4.97;2.77;;;18.10;99.90;;;;;;4984594;28;20233;-65
2021/10/07 09:21:56;;;;;;;3.53;2.73;;;18.20;99.90;;;;;;4984062;28;20334;-65
2021/10/07 09:24:37;;;;;;;3.03;2.73;;;17.60;99.90;;;;;;4982106;28;20619;-65
2021/10/07 09:27:09;;;;;;;2.77;2.57;;;17.80;99.90;;;;;;4974982;28;20716;-66
2021/10/07 09:29:42;;;;;;;4.37;3.00;;;18.10;99.90;;;;;;4973844;28;20795;-66
2021/10/07 09:32:12;;;;;;;3.90;2.80;;;18.20;99.90;;;;;;4976902;28;20302;-66
2021/10/07 09:34:43;;;;;;;3.73;3.20;;;18.40;99.90;;;;;;4978968;28;20320;-65
2021/10/07 09:37:25;;;;;;;4.47;3.20;;;18.40;99.90;;;;;;4972152;28;21783;-65
2021/10/07 09:39:56;;;;;;;3.83;3.20;;;18.20;99.90;;;;;;4961841;28;20262;-65
2021/10/07 09:42:28;;;;;;;3.30;2.40;;;18.40;99.90;;;;;;4972167;28;20250;-66
2021/10/07 09:45:09;;;;;;;4.43;3.50;;;18.50;99.90;;;;;;4980443;28;20503;-65
2021/10/07 09:47:40;;;;;;;4.37;3.40;;;18.30;99.90;;;;;;4976375;28;20318;-66
2021/10/07 09:50:11;;;;;;;5.10;3.60;;;18.30;99.90;;;;;;4975795;28;20370;-67
2021/10/07 09:52:40;;;;;;;5.10;3.10;;;18.30;99.90;;;;;;4978363;28;20248;-66
2021/10/07 09:55:10;;;;;;;3.20;2.90;;;18.30;99.90;;;;;;4972675;28;20348;-66
2021/10/07 09:57:49;;;;;;;4.70;2.80;;;18.60;99.90;;;;;;4970911;28;20317;-67
2021/10/07 10:00:19;;;;;;;3.83;3.10;;;18.80;99.90;;;;;;4982107;28;20361;-66
2021/10/07 10:02:48;;;;;;;3.00;2.70;;;18.90;99.90;;;;;;4975840;28;20717;-66
2021/10/07 10:05:16;;;;;;;2.60;2.40;;;19.20;99.90;;;;;;4980072;28;20279;-67
2021/10/07 10:07:45;;;;;;;4.77;2.57;;;19.50;99.90;;;;;;4979188;28;20247;-66
2021/10/07 10:10:15;;;;;;;2.93;1.63;;;19.40;99.90;;;;;;4977593;28;20248;-66
2021/10/07 10:12:43;;;;;;;2.57;1.90;;;19.30;99.90;;;;;;4989260;28;20274;-66
2021/10/07 10:15:13;;;;;;;1.90;1.70;;;19.50;99.90;;;;;;4991915;28;20248;-66
2021/10/07 10:17:43;;;;;;;2.40;2.00;;;19.50;99.90;;;;;;4983026;28;20347;-65
2021/10/07 10:20:19;;;;;;;2.33;1.80;;;19.40;99.90;;;;;;4983839;28;20716;-66
2021/10/07 10:22:52;;;;;;;2.47;2.00;;;19.30;99.90;;;;;;4987699;28;20326;-66
2021/10/07 10:25:20;;;;;;;2.30;2.13;;;19.30;99.90;;;;;;4990294;28;20255;-66
2021/10/07 10:27:55;;;;;;;2.13;1.90;;;19.60;99.90;;;;;;4994181;28;20242;-65
2021/10/07 10:30:26;;;;;;;2.13;2.03;;;19.80;99.90;;;;;;4993588;28;20276;-66
2021/10/07 10:32:59;;;;;;;2.13;2.00;;;19.90;99.90;;;;;;4984979;28;20669;-67
2021/10/07 10:35:40;;;;;;;2.97;2.00;;;20.00;99.90;;;;;;4992582;28;20232;-65
2021/10/07 10:38:11;;;;;;;2.13;1.93;;;20.00;99.90;;;;;;4994925;28;20781;-66
2021/10/07 10:40:40;;;;;;;2.50;2.30;;;20.20;99.90;;;;;;4985267;28;20337;-65
2021/10/07 10:43:36;;;;;;;2.63;2.43;;;20.30;99.90;;;;;;4987008;28;20239;-66
2021/10/07 10:46:15;;;;;;;2.20;2.00;;;20.30;99.90;;;;;;4987636;28;20263;-66
2021/10/07 10:49:01;;;;;;;2.60;2.43;;;20.30;99.90;;;;;;4982832;28;20252;-66
2021/10/07 10:51:36;;;;;;;2.90;2.70;;;20.30;99.90;;;;;;4989937;28;20359;-66
2021/10/07 10:54:11;;;;;;;3.80;2.87;;;20.00;99.90;;;;;;4994003;28;20339;-65
2021/10/07 10:56:43;;;;;;;3.03;2.33;;;20.00;99.90;;;;;;4990203;28;20248;-65
2021/10/07 10:59:18;;;;;;;3.53;3.03;;;19.70;99.90;;;;;;4989319;28;20239;-66
2021/10/07 11:02:19;;;;;;;2.73;2.53;;;19.50;99.90;;;;;;4982091;28;20240;-66
2021/10/07 11:04:51;;;;;;;3.67;2.90;;;19.80;99.90;;;;;;4981123;28;20245;-66
2021/10/07 11:07:22;;;;;;;3.40;3.07;;;19.80;99.90;;;;;;4989924;28;20351;-66
2021/10/07 11:09:58;;;;;;;3.27;2.97;;;19.80;99.90;;;;;;4988938;28;20248;-66
2021/10/07 11:12:53;;;;;;;3.27;2.83;;;20.10;99.90;;;;;;4989460;28;20766;-67
2021/10/07 11:15:23;;;;;;;2.73;2.33;;;20.20;99.90;;;;;;4988804;28;20687;-65
2021/10/07 11:17:53;;;;;;;2.60;2.40;;;20.60;99.90;;;;;;4990874;28;20251;-65
2021/10/07 11:20:25;;;;;;;2.80;2.40;;;20.60;99.90;;;;;;4988016;28;20340;-65
2021/10/07 11:23:06;;;;;;;2.73;2.47;;;20.80;99.90;;;;;;4993044;28;20335;-66
2021/10/07 11:25:36;;;;;;;3.10;2.80;;;21.10;99.90;;;;;;4980563;28;20235;-66
2021/10/07 11:28:05;;;;;;;2.40;2.20;;;21.20;99.90;;;;;;4989202;28;20240;-66
2021/10/07 11:30:37;;;;;;;3.17;2.70;;;21.20;99.90;;;;;;4975317;28;20294;-66
2021/10/07 11:33:10;;;;;;;3.23;2.60;;;20.70;99.90;;;;;;4979780;28;20275;-66
2021/10/07 11:35:40;;;;;;;3.00;2.80;;;20.20;99.90;;;;;;4983445;28;20236;-66
2021/10/07 11:38:11;;;;;;;3.07;2.53;;;20.00;99.90;;;;;;4985881;28;20807;-66
2021/10/07 11:40:43;;;;;;;3.23;2.33;;;20.00;99.90;;;;;;4982705;28;20774;-66
2021/10/07 11:43:14;;;;;;;2.37;2.17;;;19.80;99.90;;;;;;4978367;28;20618;-66
2021/10/07 11:45:45;;;;;;;3.03;2.83;;;19.70;99.90;;;;;;4978666;28;20864;-66
2021/10/07 11:48:14;;;;;;;3.03;2.83;;;19.90;99.90;;;;;;4983446;28;20641;-65
2021/10/07 11:50:45;;;;;;;2.37;2.20;;;20.00;99.90;;;;;;4979998;28;20251;-66
2021/10/07 11:53:27;;;;;;;2.63;2.43;;;20.00;99.90;;;;;;4984625;28;20328;-66
2021/10/07 11:55:56;;;;;;;2.70;2.40;;;19.80;99.90;;;;;;4978278;28;20268;-65
2021/10/07 11:58:26;;;;;;;3.43;2.27;;;19.90;99.90;;;;;;4980794;28;20252;-66
2021/10/07 12:00:55;;;;;;;2.17;1.97;;;20.00;99.90;;;;;;4981865;28;20248;-65
2021/10/07 12:03:26;;;;;;;2.57;2.37;;;19.90;99.90;;;;;;4983827;28;20236;-66
2021/10/07 12:06:00;;;;;;;5.20;2.70;;;19.60;99.90;;;;;;4982564;28;20241;-66
2021/10/07 12:08:30;;;;;;;2.40;2.20;;;19.50;99.90;;;;;;4980722;28;20418;-66
2021/10/07 12:11:00;;;;;;;2.33;2.10;;;19.50;99.90;;;;;;4978301;28;20366;-66
2021/10/07 12:13:29;;;;;;;2.30;2.10;;;19.40;99.90;;;;;;4979084;28;20236;-66
2021/10/07 12:16:00;;;;;;;3.17;2.87;;;19.30;99.90;;;;;;4981814;28;20327;-66
2021/10/07 12:18:29;;;;;;;3.47;2.50;;;19.10;99.90;;;;;;4987125;28;20322;-65
2021/10/07 12:21:09;;;;;;;5.23;2.63;;;19.30;99.90;;;;;;4984450;28;20344;-66
2021/10/07 12:23:58;;;;;;;2.30;2.10;;;19.40;99.90;;;;;;4987548;28;20258;-66
2021/10/07 12:26:41;;;;;;;2.47;2.27;;;19.40;99.90;;;;;;4984080;28;20338;-65
2021/10/07 12:29:11;;;;;;;2.30;2.10;;;19.30;99.90;;;;;;4984488;28;20984;-66
2021/10/07 12:31:41;;;;;;;2.60;2.27;;;19.20;99.90;;;;;;4994118;28;20518;-66
2021/10/07 12:34:12;;;;;;;2.93;2.73;;;19.30;99.90;;;;;;4978314;28;20239;-66
2021/10/07 12:36:44;;;;;;;3.67;2.13;;;19.20;99.90;;;;;;4975043;28;20783;-66
2021/10/07 12:39:24;;;;;;;2.40;2.20;;;19.20;99.90;;;;;;4983360;28;20252;-65
2021/10/07 12:41:55;;;;;;;2.73;2.50;;;19.10;99.90;;;;;;4977238;28;20710;-65
2021/10/07 12:44:25;;;;;;;2.97;2.30;;;19.00;99.90;;;;;;4973206;28;20247;-64
2021/10/07 12:46:56;;;;;;;3.37;2.60;;;19.10;99.90;;;;;;4973505;28;20248;-65
2021/10/07 12:49:42;;;;;;;2.60;2.30;;;19.20;99.90;;;;;;4979694;28;20274;-67
2021/10/07 12:52:17;;;;;;;2.33;2.13;;;19.10;99.90;;;;;;4971489;28;20279;-66
2021/10/07 12:54:53;;;;;;;2.87;2.17;;;19.00;99.90;;;;;;4974305;28;20239;-65
2021/10/07 12:57:41;;;;;;;2.13;1.97;;;18.90;99.90;;;;;;4973154;28;20730;-65
2021/10/07 13:00:18;;;;;;;2.53;2.33;;;18.90;99.90;;;;;;4972790;28;20885;-67
2021/10/07 13:02:48;;;;;;;3.40;2.47;;;18.90;99.90;;;;;;4973472;28;20881;-66
2021/10/07 13:05:18;;;;;;;3.77;2.60;;;18.80;99.90;;;;;;4975670;28;20250;-66
2021/10/07 13:07:50;;;;;;;3.03;2.23;;;18.80;99.90;;;;;;4973557;28;20710;-66
2021/10/07 13:10:18;;;;;;;3.70;2.80;;;18.80;99.90;;;;;;4971714;28;20787;-65
2021/10/07 13:12:47;;;;;;;2.70;2.40;;;18.80;99.90;;;;;;4973746;28;20284;-65